Jamesburg, New Jersey
Current Conditions -  °F | °C
As of 2:53 PM on Saturday 20 Dec 2014 (Local Time) from KTTN Reporting Station
Overcast Overcast  
Wind Chill: 33°   Ceiling: 2700
Heat Index: 33°   Visibility: 10mi
Dew Point: 20°   Wind: 3mph
Humidity: 59%   Direction: NA
Pressure: 30.25"   Gusts: NA
Location:  40.35°N, 74.44°W
Report Text: KTTN 201953Z VRB03KT 10SM OVC027 01/M07 A3025 RMK AO2 SLP241 T00061067
Loading
Personal Weather Stations






























Interactive Weather Map New forecast layout! Learn more

10-Day Weather Forecast

Advertisements
Track Severe Weather on mobile